createdAt,value
2019-04-11T00:01:14.231Z,12.00
2019-04-11T00:06:19.317Z,11.80
2019-04-11T00:11:23.929Z,11.90
2019-04-11T00:16:28.923Z,11.70
2019-04-11T00:21:33.008Z,11.50
2019-04-11T00:26:38.109Z,11.50
2019-04-11T00:31:43.159Z,11.60
2019-04-11T00:36:47.125Z,11.50
2019-04-11T00:41:52.286Z,11.50
2019-04-11T00:46:56.387Z,11.50
2019-04-11T00:52:00.787Z,11.70
2019-04-11T00:57:04.641Z,11.50
2019-04-11T01:02:09.397Z,11.40
2019-04-11T01:07:14.513Z,11.50
2019-04-11T01:12:19.047Z,11.40
2019-04-11T01:17:23.380Z,11.50
2019-04-11T01:22:27.656Z,11.40
2019-04-11T01:27:32.207Z,11.10
2019-04-11T01:32:36.259Z,11.20
2019-04-11T01:37:40.426Z,11.20
2019-04-11T01:42:45.063Z,11.20
2019-04-11T01:48:11.206Z,11.20
2019-04-11T01:53:15.646Z,11.20
2019-04-11T01:58:20.412Z,11.20
2019-04-11T02:03:43.567Z,11.10
2019-04-11T02:08:49.344Z,11.10
2019-04-11T02:14:05.062Z,11.10
2019-04-11T02:18:59.559Z,11.20
2019-04-11T02:24:21.577Z,11.10
2019-04-11T02:29:26.262Z,11.20
2019-04-11T02:34:31.526Z,11.10
2019-04-11T02:39:35.781Z,10.90
2019-04-11T02:45:01.204Z,10.90
2019-04-11T02:49:47.583Z,10.70
2019-04-11T02:54:52.690Z,10.70
2019-04-11T02:59:57.792Z,10.80
2019-04-11T03:05:02.782Z,10.80
2019-04-11T03:10:11.347Z,10.80
2019-04-11T03:15:27.450Z,10.80
2019-04-11T03:20:29.061Z,10.90
2019-04-11T03:25:28.379Z,10.70
2019-04-11T03:30:46.629Z,10.70
2019-04-11T03:41:05.984Z,10.70
2019-04-11T03:46:11.735Z,10.70
2019-04-11T03:50:57.633Z,10.70
2019-04-11T03:56:04.416Z,10.80
2019-04-11T04:01:11.474Z,10.80
2019-04-11T04:06:16.840Z,10.40
2019-04-11T04:11:26.690Z,10.60
2019-04-11T04:16:56.477Z,10.40
2019-04-11T04:22:08.751Z,10.40
2019-04-11T04:27:13.362Z,10.40
2019-04-11T04:32:18.689Z,10.50
2019-04-11T04:37:26.070Z,10.50
2019-04-11T04:42:35.954Z,10.40
2019-04-11T04:47:43.791Z,10.60
2019-04-11T04:52:42.891Z,10.50
2019-04-11T04:57:48.736Z,10.50
2019-04-11T05:02:54.891Z,10.50
2019-04-11T05:08:00.690Z,10.40
2019-04-11T05:13:05.819Z,10.20
2019-04-11T05:18:11.396Z,10.40
2019-04-11T05:23:16.967Z,9.90
2019-04-11T05:28:21.520Z,9.60
2019-04-11T05:33:25.907Z,9.90
2019-04-11T05:38:30.133Z,10.10
2019-04-11T05:43:37.341Z,10.00
2019-04-11T05:49:02.647Z,10.20
2019-04-11T05:54:09.278Z,10.20
2019-04-11T05:59:17.191Z,10.00
2019-04-11T06:04:34.527Z,10.30
2019-04-11T06:09:41.669Z,10.10
2019-04-11T06:14:51.586Z,10.00
2019-04-11T06:20:15.406Z,10.20
2019-04-11T06:25:40.225Z,10.10
2019-04-11T06:31:01.023Z,10.10
2019-04-11T06:36:28.218Z,10.20
2019-04-11T06:41:51.047Z,10.00
2019-04-11T06:47:05.754Z,10.20
2019-04-11T06:52:10.727Z,10.40
2019-04-11T06:57:18.616Z,10.40
2019-04-11T07:02:24.619Z,10.50
2019-04-11T07:07:32.192Z,10.40
2019-04-11T07:12:40.669Z,10.50
2019-04-11T07:18:04.789Z,10.50
2019-04-11T07:23:27.026Z,10.40
2019-04-11T07:28:50.827Z,10.40
2019-04-11T07:34:26.832Z,10.30
2019-04-11T07:39:51.506Z,10.50
2019-04-11T07:44:59.696Z,10.40
2019-04-11T07:50:05.749Z,10.50
2019-04-11T07:55:11.027Z,10.40
2019-04-11T08:00:44.793Z,10.60
2019-04-11T08:06:13.275Z,10.70
2019-04-11T08:11:40.062Z,10.60
2019-04-11T08:17:07.235Z,10.70
2019-04-11T08:22:49.612Z,10.80
2019-04-11T08:28:02.176Z,11.10
2019-04-11T08:33:04.373Z,11.10
2019-04-11T08:38:12.025Z,11.10
2019-04-11T08:43:26.932Z,11.00
2019-04-11T08:48:33.207Z,11.20
2019-04-11T08:53:51.583Z,11.30
2019-04-11T08:59:47.358Z,11.40
2019-04-11T09:05:22.824Z,11.40
2019-04-11T09:10:46.258Z,11.50
2019-04-11T09:16:13.152Z,11.60
2019-04-11T09:21:36.147Z,12.10
2019-04-11T09:26:58.328Z,11.90
2019-04-11T09:32:28.559Z,12.00
2019-04-11T09:37:35.973Z,12.10
2019-04-11T09:42:47.031Z,12.30
2019-04-11T09:48:18.259Z,12.30
2019-04-11T09:53:22.798Z,12.60
2019-04-11T09:58:29.513Z,12.70
2019-04-11T10:03:34.561Z,12.90
2019-04-11T10:08:49.438Z,12.80
2019-04-11T10:13:57.578Z,12.90
2019-04-11T10:19:24.337Z,12.80
2019-04-11T10:24:50.782Z,13.00
2019-04-11T10:30:13.134Z,13.20
2019-04-11T10:35:40.679Z,13.00
2019-04-11T10:41:04.184Z,13.10
2019-04-11T10:46:43.873Z,13.30
2019-04-11T10:52:00.749Z,13.30
2019-04-11T10:57:25.093Z,13.30
2019-04-11T11:02:45.320Z,13.20
2019-04-11T11:07:50.973Z,13.40
2019-04-11T11:13:13.939Z,13.70
2019-04-11T11:19:13.936Z,13.50
2019-04-11T11:24:05.411Z,13.30
2019-04-11T11:29:26.519Z,13.90
2019-04-11T11:34:34.718Z,13.70
2019-04-11T11:40:12.063Z,13.80
2019-04-11T11:45:23.627Z,13.70
2019-04-11T11:50:30.455Z,13.80
2019-04-11T11:55:37.795Z,13.50
2019-04-11T12:00:42.105Z,13.70
2019-04-11T12:06:05.647Z,13.80
2019-04-11T12:11:11.920Z,13.70
2019-04-11T12:16:21.346Z,13.40
2019-04-11T12:21:28.518Z,13.80
2019-04-11T12:26:35.972Z,13.80
2019-04-11T12:31:42.428Z,13.70
2019-04-11T12:36:50.415Z,13.80
2019-04-11T12:41:55.058Z,13.80
2019-04-11T12:47:17.099Z,13.80
2019-04-11T12:52:32.054Z,13.80
2019-04-11T12:57:54.173Z,13.70
2019-04-11T13:03:16.792Z,13.70
2019-04-11T13:08:58.384Z,13.80
2019-04-11T13:14:33.338Z,13.70
2019-04-11T13:20:04.697Z,14.80
2019-04-11T13:25:21.966Z,13.70
2019-04-11T13:30:48.122Z,13.80
2019-04-11T13:36:17.998Z,14.10
2019-04-11T13:41:35.907Z,13.80
2019-04-11T13:46:59.405Z,14.00
2019-04-11T13:52:28.802Z,13.60
2019-04-11T13:57:55.170Z,13.50
2019-04-11T14:03:24.454Z,13.70
2019-04-11T14:08:35.455Z,14.10
2019-04-11T14:13:41.562Z,14.20
2019-04-11T14:18:56.571Z,13.70
2019-04-11T14:24:11.597Z,13.30
2019-04-11T14:29:37.662Z,13.40
2019-04-11T14:35:07.159Z,13.00
2019-04-11T14:40:49.292Z,13.40
2019-04-11T14:46:24.167Z,13.10
2019-04-11T14:51:58.416Z,13.30
2019-04-11T14:57:09.978Z,13.10
2019-04-11T15:02:33.359Z,13.30
2019-04-11T15:07:38.284Z,13.10
2019-04-11T15:12:42.650Z,13.10
2019-04-11T15:17:47.417Z,13.20
2019-04-11T15:23:13.680Z,13.30
2019-04-11T15:28:43.651Z,13.30
2019-04-11T15:33:51.519Z,13.00
2019-04-11T15:39:16.428Z,12.80
2019-04-11T15:44:43.729Z,12.70
2019-04-11T15:50:11.475Z,12.60
2019-04-11T15:55:37.498Z,12.30
2019-04-11T16:00:57.043Z,12.50
2019-04-11T16:06:19.266Z,12.20
2019-04-11T16:11:47.791Z,12.40
2019-04-11T16:17:13.839Z,12.20
2019-04-11T16:22:35.035Z,12.20
2019-04-11T16:28:08.167Z,13.80
2019-04-11T16:33:31.355Z,13.20
2019-04-11T16:38:42.167Z,12.40
2019-04-11T16:43:49.343Z,12.40
2019-04-11T16:48:55.617Z,13.20
2019-04-11T16:53:59.794Z,13.10
2019-04-11T16:59:03.926Z,12.80
2019-04-11T17:04:08.204Z,13.00
2019-04-11T17:09:19.999Z,13.30
2019-04-11T17:14:28.186Z,13.20
2019-04-11T17:19:29.990Z,13.30
2019-04-11T17:24:34.537Z,13.30
2019-04-11T17:29:38.822Z,13.80
2019-04-11T17:34:43.435Z,15.90
2019-04-11T17:39:47.742Z,16.70
2019-04-11T17:44:51.697Z,17.30
2019-04-11T17:49:55.941Z,15.90
2019-04-11T17:55:00.544Z,15.10
2019-04-11T18:00:07.836Z,14.50
2019-04-11T18:05:12.386Z,14.20
2019-04-11T18:10:16.785Z,14.00
2019-04-11T18:15:21.129Z,13.80
2019-04-11T18:20:27.328Z,13.90
2019-04-11T18:25:31.752Z,13.40
2019-04-11T18:30:35.986Z,13.70
2019-04-11T18:35:40.442Z,13.40
2019-04-11T18:40:45.127Z,13.30
2019-04-11T18:45:49.492Z,13.20
2019-04-11T18:50:53.841Z,13.40
2019-04-11T18:55:58.047Z,13.30
2019-04-11T19:01:03.367Z,12.90
2019-04-11T19:06:07.758Z,13.00
2019-04-11T19:11:15.374Z,12.80
2019-04-11T19:16:17.871Z,12.90
2019-04-11T19:21:22.072Z,12.80
2019-04-11T19:26:26.160Z,12.80
2019-04-11T19:31:30.539Z,12.60
2019-04-11T19:36:35.241Z,12.50
2019-04-11T19:41:39.621Z,12.40
2019-04-11T19:46:43.951Z,12.30
2019-04-11T19:51:50.874Z,12.30
2019-04-11T19:57:12.967Z,12.50
2019-04-11T20:02:17.235Z,12.40
2019-04-11T20:07:21.564Z,12.50
2019-04-11T20:12:27.716Z,12.50
2019-04-11T20:17:43.734Z,12.50
2019-04-11T20:22:39.887Z,12.40
2019-04-11T20:27:45.367Z,12.20
2019-04-11T20:32:49.665Z,12.20
2019-04-11T20:37:54.362Z,12.40
2019-04-11T20:42:58.563Z,12.00
2019-04-11T20:48:02.960Z,12.30
2019-04-11T20:53:12.609Z,11.90
2019-04-11T20:58:13.553Z,12.00
2019-04-11T21:03:18.070Z,11.90
2019-04-11T21:08:22.374Z,12.10
2019-04-11T21:13:26.702Z,11.80
2019-04-11T21:18:31.666Z,12.10
2019-04-11T21:23:36.239Z,11.80
2019-04-11T21:28:40.131Z,12.00
2019-04-11T21:33:44.082Z,11.90
2019-04-11T21:38:48.423Z,11.80
2019-04-11T21:43:52.412Z,11.80
2019-04-11T21:48:56.719Z,11.50
2019-04-11T21:54:01.020Z,11.60
2019-04-11T21:59:05.059Z,11.60
2019-04-11T22:04:09.995Z,11.70
2019-04-11T22:09:14.899Z,11.70
2019-04-11T22:14:18.943Z,11.60
2019-04-11T22:19:23.335Z,11.50
2019-04-11T22:24:27.650Z,11.50
2019-04-11T22:29:31.893Z,11.50
2019-04-11T22:34:44.288Z,11.50
2019-04-11T22:39:48.299Z,11.50
2019-04-11T22:44:52.907Z,11.50
2019-04-11T22:49:56.858Z,11.40
2019-04-11T22:55:00.811Z,11.30
2019-04-11T23:00:06.290Z,11.40
2019-04-11T23:05:10.327Z,11.20
2019-04-11T23:10:14.356Z,11.10
2019-04-11T23:15:18.367Z,11.30
2019-04-11T23:20:23.053Z,11.10
2019-04-11T23:25:27.279Z,11.20
2019-04-11T23:30:31.803Z,11.10
2019-04-11T23:35:35.741Z,11.00
2019-04-11T23:40:40.575Z,11.10
2019-04-11T23:45:45.255Z,11.10
2019-04-11T23:50:49.759Z,11.20
2019-04-11T23:55:54.308Z,11.20
